Time;durP1;ratioP1;P1;durP2;ratioP2;P2;SDS_P1;SDS_P2;PMS_P1;PMS_P2;Temp;Humidity;BMP_temperature;BMP_pressure;BME280_temperature;BME280_humidity;BME280_pressure;Samples;Min_cycle;Max_cycle;Signal;HPM_P1;HPM_P2
2022/04/27 05:35:29;;;;;;;12.65;5.60;;;24.90;99.90;;;;;;4947846;29;20055;-91
2022/04/27 05:38:14;;;;;;;10.63;4.97;;;25.60;99.90;;;;;;4933077;29;20043;-88
2022/04/27 05:40:49;;;;;;;13.15;6.43;;;25.70;99.90;;;;;;4977098;23;20051;-85
2022/04/27 05:43:51;;;;;;;11.82;6.00;;;26.10;99.90;;;;;;4923432;28;20038;-87
2022/04/27 05:46:35;;;;;;;12.70;4.72;;;25.40;99.90;;;;;;4927564;29;20038;-87
2022/04/27 05:49:21;;;;;;;15.73;7.55;;;24.80;99.90;;;;;;4959016;29;20050;-84
2022/04/27 05:52:06;;;;;;;18.75;8.98;;;25.20;99.90;;;;;;4958871;29;20038;-88
2022/04/27 05:54:52;;;;;;;13.45;6.80;;;25.60;99.90;;;;;;4959134;29;20082;-88
2022/04/27 05:57:37;;;;;;;14.40;7.55;;;23.70;99.90;;;;;;4944441;29;20189;-88
2022/04/27 06:00:23;;;;;;;14.10;6.72;;;25.40;99.90;;;;;;4944599;29;20042;-88
2022/04/27 06:03:09;;;;;;;15.23;5.20;;;26.40;99.90;;;;;;4928404;29;20086;-88
2022/04/27 06:05:37;;;;;;;12.70;5.72;;;25.60;99.90;;;;;;4941351;29;20035;-88
2022/04/27 06:08:07;;;;;;;11.98;4.95;;;24.00;99.90;;;;;;4925671;29;20027;-89
2022/04/27 06:10:33;;;;;;;13.82;4.35;;;25.10;99.90;;;;;;4925627;29;20036;-87
2022/04/27 06:13:02;;;;;;;17.48;4.63;;;26.10;99.90;;;;;;4925788;29;20118;-87
2022/04/27 06:15:47;;;;;;;13.57;4.60;;;27.20;99.90;;;;;;4943459;29;20046;-87
2022/04/27 06:18:41;;;;;;;13.20;4.95;;;27.70;99.90;;;;;;4943244;29;20142;-88
2022/04/27 06:21:12;;;;;;;13.85;5.65;;;27.30;99.90;;;;;;4925820;29;20031;-88
2022/04/27 06:23:40;;;;;;;14.23;6.45;;;25.10;99.90;;;;;;4925372;29;20074;-87
2022/04/27 06:26:07;;;;;;;15.90;7.47;;;23.20;99.90;;;;;;4925543;29;20027;-88
2022/04/27 06:28:38;;;;;;;13.88;6.38;;;23.50;99.90;;;;;;4926127;29;20451;-88
2022/04/27 06:31:05;;;;;;;11.35;6.78;;;23.10;99.90;;;;;;4925367;29;20377;-88
2022/04/27 06:33:32;;;;;;;18.73;6.45;;;22.70;99.90;;;;;;4941355;29;20078;-87
2022/04/27 06:35:58;;;;;;;8.50;4.13;;;23.10;99.90;;;;;;4925253;29;20038;-88
2022/04/27 06:38:25;;;;;;;8.13;3.42;;;23.70;99.90;;;;;;4925189;29;20480;-87
2022/04/27 06:40:56;;;;;;;14.45;2.58;;;23.00;99.90;;;;;;4925656;29;20059;-88
2022/04/27 06:43:22;;;;;;;6.55;2.10;;;22.80;99.90;;;;;;4925550;29;20081;-88
2022/04/27 06:45:49;;;;;;;7.20;1.40;;;22.20;99.90;;;;;;4941287;29;20124;-87
2022/04/27 06:48:34;;;;;;;10.43;1.60;;;21.60;99.90;;;;;;4944904;29;20041;-87
2022/04/27 06:51:23;;;;;;;5.78;1.27;;;21.60;99.90;;;;;;4943477;29;20042;-88
2022/04/27 06:54:08;;;;;;;7.75;1.50;;;22.70;99.90;;;;;;4943847;29;20081;-86
2022/04/27 06:56:53;;;;;;;5.25;2.10;;;23.40;99.90;;;;;;4943834;29;20523;-86
2022/04/27 06:59:39;;;;;;;3.80;1.50;;;23.60;99.90;;;;;;4927789;29;20058;-87
2022/04/27 07:02:11;;;;;;;4.63;1.50;;;23.30;99.90;;;;;;4925423;29;20034;-88
2022/04/27 07:04:40;;;;;;;5.47;1.65;;;25.00;99.90;;;;;;4924843;29;20042;-87
2022/04/27 07:07:07;;;;;;;6.57;2.05;;;24.50;99.90;;;;;;4940499;29;20035;-87
2022/04/27 07:09:35;;;;;;;7.80;1.55;;;23.90;99.90;;;;;;4924717;29;20127;-87
2022/04/27 07:12:02;;;;;;;8.25;1.38;;;22.90;99.90;;;;;;4924717;29;20106;-86
2022/04/27 07:14:30;;;;;;;6.65;2.20;;;22.80;99.90;;;;;;4924458;28;20031;-88
2022/04/27 07:16:56;;;;;;;9.02;1.90;;;22.00;99.90;;;;;;4925091;29;20118;-87
2022/04/27 07:19:23;;;;;;;6.65;1.65;;;22.90;99.90;;;;;;4924480;29;20035;-87
2022/04/27 07:21:50;;;;;;;4.78;1.58;;;23.30;99.90;;;;;;4940350;29;20062;-87
2022/04/27 07:24:16;;;;;;;6.25;1.30;;;22.60;99.90;;;;;;4940370;29;20071;-86
2022/04/27 07:26:46;;;;;;;9.30;3.10;;;22.80;99.90;;;;;;4923538;29;20038;-87
2022/04/27 07:29:14;;;;;;;5.00;1.77;;;23.10;99.90;;;;;;4940145;29;20184;-88
2022/04/27 07:31:41;;;;;;;6.57;1.73;;;23.70;99.90;;;;;;4924218;29;20345;-87
2022/04/27 07:34:07;;;;;;;5.72;1.55;;;22.60;99.90;;;;;;4924060;29;20035;-86
2022/04/27 07:36:34;;;;;;;8.60;1.48;;;22.70;99.90;;;;;;4924238;29;20548;-91
2022/04/27 07:39:00;;;;;;;4.38;1.38;;;23.70;99.90;;;;;;4924129;29;20054;-86
2022/04/27 07:41:27;;;;;;;7.05;1.38;;;23.30;99.90;;;;;;4920385;29;20048;-86
2022/04/27 07:43:53;;;;;;;7.45;1.40;;;23.40;99.90;;;;;;4920730;29;20038;-88
2022/04/27 07:46:20;;;;;;;7.15;1.85;;;24.70;99.90;;;;;;4920418;29;20074;-87
2022/04/27 07:48:47;;;;;;;8.55;1.55;;;23.60;99.90;;;;;;4920588;29;20047;-86
2022/04/27 07:51:14;;;;;;;6.07;1.27;;;22.90;99.90;;;;;;4936593;29;20047;-87
2022/04/27 07:53:41;;;;;;;6.78;0.90;;;22.80;99.90;;;;;;4920895;29;20032;-87
2022/04/27 07:56:11;;;;;;;5.95;1.20;;;22.50;99.90;;;;;;4920795;29;20067;-87
2022/04/27 07:58:38;;;;;;;5.13;1.58;;;22.40;99.90;;;;;;4920740;29;20039;-87
2022/04/27 08:01:05;;;;;;;7.60;1.50;;;22.80;99.90;;;;;;4920575;29;20118;-86
2022/04/27 08:03:35;;;;;;;5.40;1.27;;;23.20;99.90;;;;;;4920462;29;20039;-87
2022/04/27 08:06:05;;;;;;;5.60;1.45;;;22.70;99.90;;;;;;4931978;29;20081;-90
2022/04/27 08:08:50;;;;;;;5.15;1.15;;;23.00;99.90;;;;;;5066372;23;20991;-93
2022/04/27 08:11:17;;;;;;;6.32;1.23;;;23.50;99.90;;;;;;4945353;28;20077;-94
2022/04/27 08:13:47;;;;;;;4.35;1.05;;;23.20;99.90;;;;;;4944344;28;20026;-92
2022/04/27 08:16:17;;;;;;;6.57;1.55;;;23.50;99.90;;;;;;4943142;28;20031;-93
2022/04/27 08:18:45;;;;;;;5.95;1.58;;;23.40;99.90;;;;;;4944739;28;20034;-94
2022/04/27 08:21:15;;;;;;;5.13;1.70;;;22.70;99.90;;;;;;4938722;28;20026;-93
2022/04/27 08:23:44;;;;;;;3.67;1.20;;;22.90;99.90;;;;;;4960066;28;20109;-92
2022/04/27 08:28:54;;;;;;;5.18;1.13;;;22.10;99.90;;;;;;5037388;23;19922;-92
2022/04/27 08:31:35;;;;;;;2.90;1.17;;;22.40;99.90;;;;;;4931778;28;20487;-93
2022/04/27 08:34:05;;;;;;;2.08;1.05;;;22.60;99.90;;;;;;4960537;28;20532;-93
2022/04/27 08:36:31;;;;;;;5.35;1.27;;;22.20;99.90;;;;;;4962021;28;20043;-94
2022/04/27 08:39:00;;;;;;;4.25;1.10;;;22.60;99.90;;;;;;4952980;28;20031;-93
2022/04/27 08:41:39;;;;;;;4.65;1.00;;;23.60;99.90;;;;;;4970944;28;20391;-92
2022/04/27 08:44:08;;;;;;;1.50;0.88;;;23.10;99.90;;;;;;4958029;28;20031;-94
2022/04/27 08:46:36;;;;;;;1.52;0.90;;;22.80;99.90;;;;;;4958292;28;20085;-91
2022/04/27 08:49:16;;;;;;;5.28;1.17;;;23.40;99.90;;;;;;4941040;28;20051;-94
2022/04/27 08:51:44;;;;;;;3.25;0.60;;;23.60;99.90;;;;;;4964798;28;20031;-92
2022/04/27 08:54:21;;;;;;;1.48;1.08;;;23.00;99.90;;;;;;4953958;29;20039;-93
2022/04/27 08:56:49;;;;;;;6.65;0.98;;;22.50;99.90;;;;;;4970899;28;20051;-93
2022/04/27 08:59:16;;;;;;;2.50;0.80;;;22.50;99.90;;;;;;4971605;28;20031;-92
2022/04/27 09:01:47;;;;;;;4.47;1.25;;;23.00;99.90;;;;;;4964659;28;20106;-92
2022/04/27 09:04:34;;;;;;;2.08;0.80;;;23.80;99.90;;;;;;4980637;28;20122;-92
2022/04/27 09:07:26;;;;;;;4.68;0.95;;;23.50;99.90;;;;;;4968824;29;20047;-93
2022/04/27 09:10:07;;;;;;;4.30;1.00;;;23.60;99.90;;;;;;4969040;29;20027;-92
2022/04/27 09:13:27;;;;;;;2.05;0.95;;;23.00;99.90;;;;;;4988266;28;20054;-93
2022/04/27 09:16:18;;;;;;;3.35;1.00;;;24.20;99.90;;;;;;4973689;29;20043;-93
2022/04/27 09:22:52;;;;;;;3.55;0.93;;;23.60;99.90;;;;;;4915660;29;20040;-93
2022/04/27 09:28:55;;;;;;;4.93;0.90;;;22.60;99.90;;;;;;4833792;29;20063;-93
2022/04/27 09:31:38;;;;;;;1.60;0.70;;;23.20;99.90;;;;;;4823729;29;20371;-93
2022/04/27 09:44:40;;;;;;;3.00;0.85;;;23.40;99.90;;;;;;5020184;23;20086;-94
2022/04/27 09:51:32;;;;;;;;;;;;;;;;;;;;;
2022/04/27 09:54:41;;;;;;;5.40;0.90;;;23.00;99.90;;;;;;5042236;23;20090;-92
2022/04/27 09:57:27;;;;;;;4.85;0.98;;;22.90;99.90;;;;;;4980286;28;20054;-95
2022/04/27 10:00:15;;;;;;;1.98;0.60;;;23.00;99.90;;;;;;4907406;29;20048;-93
2022/04/27 10:03:39;;;;;;;4.15;0.90;;;23.50;99.90;;;;;;4932740;29;20063;-94
2022/04/27 10:39:00;;;;;;;3.60;1.00;;;24.10;99.90;;;;;;4972175;28;20052;-94
2022/04/27 10:49:47;;;;;;;4.55;1.33;;;24.00;99.90;;;;;;4909404;23;20511;-94
2022/04/27 11:26:07;;;;;;;3.70;1.00;;;23.90;99.90;;;;;;1280294;23;20321;-91
2022/04/27 11:28:40;;;;;;;2.38;0.80;;;23.40;99.90;;;;;;4923544;29;20046;-92
2022/04/27 11:31:07;;;;;;;2.47;1.20;;;23.40;99.90;;;;;;4922259;29;20032;-92
2022/04/27 11:33:40;;;;;;;1.75;1.00;;;23.60;99.90;;;;;;4923293;29;20028;-92
2022/04/27 11:36:29;;;;;;;5.45;0.90;;;23.10;99.90;;;;;;4922550;29;20122;-92
2022/04/27 11:39:11;;;;;;;3.53;0.90;;;23.30;99.90;;;;;;4933246;29;20044;-93
2022/04/27 12:02:42;;;;;;;3.05;0.60;;;23.60;99.90;;;;;;5899801;23;21132;-93
2022/04/27 12:05:39;;;;;;;1.42;0.90;;;23.70;99.90;;;;;;4978381;28;20031;-92
2022/04/27 12:08:17;;;;;;;;;;;23.20;99.90;;;;;;4977860;28;20027;-94
2022/04/27 12:10:59;;;;;;;4.82;1.10;;;23.50;99.90;;;;;;4997654;23;19974;-95
2022/04/27 12:13:39;;;;;;;;;;;23.50;99.90;;;;;;4984201;28;20043;-92
2022/04/27 12:16:13;;;;;;;2.17;1.00;;;23.40;99.90;;;;;;4971868;29;19918;-93
2022/04/27 12:19:26;;;;;;;3.05;0.60;;;23.20;99.90;;;;;;4949840;29;20111;-93
2022/04/27 12:22:18;;;;;;;2.47;0.90;;;23.30;99.90;;;;;;4893197;29;20111;-92
2022/04/27 12:25:10;;;;;;;3.03;0.82;;;23.60;99.90;;;;;;4911457;29;20545;-92
2022/04/27 12:28:08;;;;;;;0.80;0.80;;;23.70;99.90;;;;;;4895417;29;20624;-95
2022/04/27 12:31:08;;;;;;;3.00;1.15;;;23.80;99.90;;;;;;4873686;29;20070;-94
2022/04/27 12:33:59;;;;;;;3.80;0.98;;;23.50;99.90;;;;;;4884533;29;20069;-95
2022/04/27 12:39:39;;;;;;;5.20;1.30;;;23.00;99.90;;;;;;4870740;29;20109;-93
2022/04/27 12:42:15;;;;;;;3.58;1.23;;;22.90;99.90;;;;;;4860565;29;20041;-95
2022/04/27 12:44:45;;;;;;;2.05;1.15;;;23.10;99.90;;;;;;4845496;29;20053;-94
2022/04/27 12:47:21;;;;;;;4.75;1.05;;;23.40;99.90;;;;;;4835909;29;20480;-93
2022/04/27 12:50:04;;;;;;;2.00;0.90;;;23.40;99.90;;;;;;4835819;29;20046;-93
2022/04/27 12:52:46;;;;;;;4.72;1.00;;;23.10;99.90;;;;;;4850583;29;20045;-92
2022/04/27 12:55:35;;;;;;;2.10;0.60;;;23.60;99.90;;;;;;4855138;29;20049;-94
2022/04/27 12:58:14;;;;;;;3.30;1.10;;;23.90;99.90;;;;;;4849676;29;20054;-94
2022/04/27 13:00:46;;;;;;;2.53;1.30;;;24.20;99.90;;;;;;4846635;29;20046;-94
2022/04/27 13:03:14;;;;;;;1.98;1.08;;;23.80;99.90;;;;;;4848048;29;20046;-93
2022/04/27 13:06:13;;;;;;;1.85;1.20;;;23.60;99.90;;;;;;4906893;23;20082;-93
2022/04/27 13:08:40;;;;;;;5.15;1.20;;;23.80;99.90;;;;;;4956644;29;20043;-92
2022/04/27 13:42:28;;;;;;;2.28;0.80;;;23.70;99.90;;;;;;5469378;23;20088;-94
2022/04/27 13:44:57;;;;;;;2.38;1.08;;;23.40;99.90;;;;;;4962912;28;20122;-94
2022/04/27 13:47:26;;;;;;;2.50;0.65;;;23.60;99.90;;;;;;4943997;28;20117;-94
2022/04/27 13:50:27;;;;;;;1.75;0.88;;;23.50;99.90;;;;;;4955063;28;20031;-94
2022/04/27 13:53:06;;;;;;;1.70;0.73;;;23.40;99.90;;;;;;5002320;23;20066;-94
2022/04/27 13:55:43;;;;;;;2.67;0.80;;;23.20;99.90;;;;;;4933024;23;20054;-95
2022/04/27 14:01:09;;;;;;;2.70;1.20;;;23.60;99.90;;;;;;4933630;29;20297;-93
2022/04/27 19:33:19;;;;;;;;;;;;;;;;;;;;;
2022/04/27 20:31:29;;;;;;;9.35;3.70;;;16.20;99.90;;;;;;6064823;23;20034;31
2022/04/27 20:38:41;;;;;;;;;;;;;;;;;;;;;
2022/04/27 20:47:34;;;;;;;10.40;3.90;;;16.10;99.90;;;;;;5106791;23;20047;-92
2022/04/27 23:47:08;;;;;;;12.65;3.33;;;15.30;99.90;;;;;;4959331;28;20034;-90
2022/04/27 23:49:36;;;;;;;11.77;3.40;;;15.30;99.90;;;;;;4943282;28;20373;-89
2022/04/27 23:52:03;;;;;;;8.45;3.20;;;15.20;99.90;;;;;;4947370;28;20019;-89
2022/04/27 23:54:30;;;;;;;11.10;3.50;;;15.20;99.90;;;;;;4959134;28;20031;-90
2022/04/27 23:56:56;;;;;;;14.70;3.92;;;15.20;99.90;;;;;;4959478;28;20114;-90
2022/04/27 23:59:23;;;;;;;10.35;3.78;;;15.20;99.90;;;;;;4959325;28;20035;-91
